sensor_id;sensor_type;location;lat;lon;timestamp;pressure;altitude;pressure_sealevel;temperature;humidity
46111;BME280;31849;55.992;37.252;2023-10-08T00:04:28;95754.78;;;6.94;65.28
46111;BME280;31849;55.992;37.252;2023-10-08T00:09:31;95758.97;;;6.97;65.09
46111;BME280;31849;55.992;37.252;2023-10-08T00:14:38;95744.75;;;6.69;64.65
46111;BME280;31849;55.992;37.252;2023-10-08T00:19:47;95755.28;;;6.83;64.89
46111;BME280;31849;55.992;37.252;2023-10-08T00:24:55;95749.59;;;6.94;64.67
46111;BME280;31849;55.992;37.252;2023-10-08T00:30:00;95748.16;;;6.89;64.36
46111;BME280;31849;55.992;37.252;2023-10-08T00:35:14;95760.00;;;6.93;63.83
46111;BME280;31849;55.992;37.252;2023-10-08T00:40:22;95782.97;;;6.99;63.45
46111;BME280;31849;55.992;37.252;2023-10-08T00:45:26;95760.47;;;6.83;63.56
46111;BME280;31849;55.992;37.252;2023-10-08T00:50:33;95757.44;;;6.93;62.69
46111;BME280;31849;55.992;37.252;2023-10-08T00:55:45;95770.22;;;6.77;63.11
46111;BME280;31849;55.992;37.252;2023-10-08T01:00:55;95760.03;;;6.74;63.07
46111;BME280;31849;55.992;37.252;2023-10-08T01:06:03;95772.75;;;6.59;63.79
46111;BME280;31849;55.992;37.252;2023-10-08T01:11:18;95762.44;;;6.59;63.13
46111;BME280;31849;55.992;37.252;2023-10-08T01:16:23;95754.13;;;6.33;64.23
46111;BME280;31849;55.992;37.252;2023-10-08T01:21:30;95745.63;;;6.31;63.57
46111;BME280;31849;55.992;37.252;2023-10-08T01:26:38;95747.09;;;6.37;63.66
46111;BME280;31849;55.992;37.252;2023-10-08T01:31:42;95752.78;;;6.25;63.75
46111;BME280;31849;55.992;37.252;2023-10-08T01:36:46;95756.22;;;6.25;63.47
46111;BME280;31849;55.992;37.252;2023-10-08T01:41:52;95752.66;;;6.47;62.88
46111;BME280;31849;55.992;37.252;2023-10-08T01:46:55;95758.38;;;6.34;62.90
46111;BME280;31849;55.992;37.252;2023-10-08T01:52:00;95771.66;;;6.46;62.47
46111;BME280;31849;55.992;37.252;2023-10-08T01:57:11;95768.34;;;6.42;62.45
46111;BME280;31849;55.992;37.252;2023-10-08T02:02:14;95767.16;;;6.30;63.21
46111;BME280;31849;55.992;37.252;2023-10-08T02:07:17;95765.97;;;6.38;63.19
46111;BME280;31849;55.992;37.252;2023-10-08T02:12:24;95760.00;;;6.37;63.52
46111;BME280;31849;55.992;37.252;2023-10-08T02:17:28;95751.00;;;6.27;63.63
46111;BME280;31849;55.992;37.252;2023-10-08T02:22:32;95766.75;;;6.21;63.57
46111;BME280;31849;55.992;37.252;2023-10-08T02:27:37;95754.97;;;6.34;62.91
46111;BME280;31849;55.992;37.252;2023-10-08T02:32:40;95759.72;;;6.43;62.73
46111;BME280;31849;55.992;37.252;2023-10-08T02:37:45;95765.28;;;6.15;63.51
46111;BME280;31849;55.992;37.252;2023-10-08T02:42:50;95751.34;;;6.19;62.25
46111;BME280;31849;55.992;37.252;2023-10-08T02:47:53;95749.88;;;6.13;61.76
46111;BME280;31849;55.992;37.252;2023-10-08T02:52:57;95742.59;;;6.22;62.05
46111;BME280;31849;55.992;37.252;2023-10-08T02:58:06;95749.59;;;6.39;61.48
46111;BME280;31849;55.992;37.252;2023-10-08T03:03:13;95731.91;;;6.31;61.19
46111;BME280;31849;55.992;37.252;2023-10-08T03:08:19;95740.13;;;6.39;60.90
46111;BME280;31849;55.992;37.252;2023-10-08T03:13:25;95734.66;;;6.45;60.89
46111;BME280;31849;55.992;37.252;2023-10-08T03:18:29;95736.91;;;6.34;61.48
46111;BME280;31849;55.992;37.252;2023-10-08T03:23:38;95743.94;;;6.49;60.68
46111;BME280;31849;55.992;37.252;2023-10-08T03:28:49;95737.53;;;6.39;60.76
46111;BME280;31849;55.992;37.252;2023-10-08T03:33:59;95720.09;;;6.25;61.64
46111;BME280;31849;55.992;37.252;2023-10-08T03:39:03;95731.19;;;6.27;61.16
46111;BME280;31849;55.992;37.252;2023-10-08T03:44:17;95752.25;;;6.37;60.89
46111;BME280;31849;55.992;37.252;2023-10-08T03:49:22;95747.16;;;6.16;61.45
46111;BME280;31849;55.992;37.252;2023-10-08T03:54:33;95763.09;;;6.25;61.15
46111;BME280;31849;55.992;37.252;2023-10-08T03:59:39;95759.19;;;6.16;61.34
46111;BME280;31849;55.992;37.252;2023-10-08T04:04:44;95765.28;;;6.15;61.44
46111;BME280;31849;55.992;37.252;2023-10-08T04:10:00;95760.31;;;6.10;61.90
46111;BME280;31849;55.992;37.252;2023-10-08T04:15:30;95763.94;;;6.06;62.54
46111;BME280;31849;55.992;37.252;2023-10-08T04:20:35;95772.84;;;5.99;61.81
46111;BME280;31849;55.992;37.252;2023-10-08T04:25:41;95768.34;;;6.04;62.29
46111;BME280;31849;55.992;37.252;2023-10-08T04:30:47;95764.22;;;6.00;62.59
46111;BME280;31849;55.992;37.252;2023-10-08T04:35:53;95776.09;;;6.03;61.79
46111;BME280;31849;55.992;37.252;2023-10-08T04:40:58;95759.53;;;6.08;61.90
46111;BME280;31849;55.992;37.252;2023-10-08T04:46:06;95752.53;;;6.12;61.16
46111;BME280;31849;55.992;37.252;2023-10-08T04:51:21;95758.16;;;6.20;61.79
46111;BME280;31849;55.992;37.252;2023-10-08T04:56:26;95751.13;;;6.24;61.49
46111;BME280;31849;55.992;37.252;2023-10-08T05:01:32;95751.47;;;6.35;60.97
46111;BME280;31849;55.992;37.252;2023-10-08T05:06:49;95751.47;;;6.54;60.08
46111;BME280;31849;55.992;37.252;2023-10-08T05:12:19;95720.94;;;6.26;60.21
46111;BME280;31849;55.992;37.252;2023-10-08T05:17:38;95750.44;;;6.39;59.85
46111;BME280;31849;55.992;37.252;2023-10-08T05:22:58;95752.31;;;6.36;59.84
46111;BME280;31849;55.992;37.252;2023-10-08T05:28:22;95761.66;;;6.38;59.25
46111;BME280;31849;55.992;37.252;2023-10-08T05:33:28;95753.50;;;6.47;58.06
46111;BME280;31849;55.992;37.252;2023-10-08T05:38:53;95765.78;;;6.61;58.16
46111;BME280;31849;55.992;37.252;2023-10-08T05:44:03;95761.13;;;6.69;57.95
46111;BME280;31849;55.992;37.252;2023-10-08T05:49:42;95769.03;;;6.65;57.42
46111;BME280;31849;55.992;37.252;2023-10-08T05:54:56;95775.81;;;6.48;58.06
46111;BME280;31849;55.992;37.252;2023-10-08T06:00:27;95780.63;;;6.75;57.33
46111;BME280;31849;55.992;37.252;2023-10-08T06:05:48;95782.50;;;6.91;56.60
46111;BME280;31849;55.992;37.252;2023-10-08T06:11:09;95785.16;;;6.89;57.65
46111;BME280;31849;55.992;37.252;2023-10-08T06:16:29;95773.56;;;6.98;56.51
46111;BME280;31849;55.992;37.252;2023-10-08T06:21:47;95787.59;;;6.92;56.11
46111;BME280;31849;55.992;37.252;2023-10-08T06:26:50;95779.25;;;7.04;55.28
46111;BME280;31849;55.992;37.252;2023-10-08T06:31:54;95779.91;;;7.10;55.73
46111;BME280;31849;55.992;37.252;2023-10-08T06:37:00;95784.75;;;7.16;54.26
46111;BME280;31849;55.992;37.252;2023-10-08T06:42:04;95776.94;;;7.17;55.05
46111;BME280;31849;55.992;37.252;2023-10-08T06:47:09;95770.34;;;6.93;55.05
46111;BME280;31849;55.992;37.252;2023-10-08T06:52:14;95779.81;;;7.11;54.35
46111;BME280;31849;55.992;37.252;2023-10-08T06:57:19;95800.69;;;7.07;54.99
46111;BME280;31849;55.992;37.252;2023-10-08T07:02:23;95794.72;;;7.24;55.29
46111;BME280;31849;55.992;37.252;2023-10-08T07:07:30;95799.38;;;7.34;54.63
46111;BME280;31849;55.992;37.252;2023-10-08T07:12:34;95811.81;;;6.90;56.15
46111;BME280;31849;55.992;37.252;2023-10-08T07:17:37;95819.09;;;6.81;55.82
46111;BME280;31849;55.992;37.252;2023-10-08T07:22:44;95816.06;;;6.53;56.75
46111;BME280;31849;55.992;37.252;2023-10-08T07:27:47;95829.47;;;6.42;57.76
46111;BME280;31849;55.992;37.252;2023-10-08T07:32:51;95828.47;;;6.05;58.44
46111;BME280;31849;55.992;37.252;2023-10-08T07:37:57;95822.34;;;6.07;58.44
46111;BME280;31849;55.992;37.252;2023-10-08T07:43:01;95829.56;;;6.20;57.95
46111;BME280;31849;55.992;37.252;2023-10-08T07:48:11;95841.22;;;6.28;58.14
46111;BME280;31849;55.992;37.252;2023-10-08T07:53:17;95834.88;;;6.55;57.67
46111;BME280;31849;55.992;37.252;2023-10-08T07:58:21;95841.84;;;6.33;58.49
46111;BME280;31849;55.992;37.252;2023-10-08T08:03:24;95844.59;;;6.49;57.91
46111;BME280;31849;55.992;37.252;2023-10-08T08:08:29;95847.53;;;6.61;58.36
46111;BME280;31849;55.992;37.252;2023-10-08T08:13:34;95855.75;;;7.26;57.50
46111;BME280;31849;55.992;37.252;2023-10-08T08:18:37;95862.69;;;7.43;56.94
46111;BME280;31849;55.992;37.252;2023-10-08T08:23:45;95861.28;;;7.55;56.71
46111;BME280;31849;55.992;37.252;2023-10-08T08:28:50;95873.22;;;7.21;57.20
46111;BME280;31849;55.992;37.252;2023-10-08T08:33:54;95887.59;;;6.89;57.81
46111;BME280;31849;55.992;37.252;2023-10-08T08:39:03;95891.56;;;6.58;58.30
46111;BME280;31849;55.992;37.252;2023-10-08T08:44:07;95893.50;;;6.32;58.75
46111;BME280;31849;55.992;37.252;2023-10-08T08:49:12;95901.56;;;6.45;59.33
46111;BME280;31849;55.992;37.252;2023-10-08T08:54:17;95894.38;;;6.91;58.38
46111;BME280;31849;55.992;37.252;2023-10-08T08:59:22;95904.50;;;6.96;58.32
46111;BME280;31849;55.992;37.252;2023-10-08T09:04:30;95892.16;;;7.02;57.80
46111;BME280;31849;55.992;37.252;2023-10-08T09:09:36;95902.97;;;7.11;57.52
46111;BME280;31849;55.992;37.252;2023-10-08T09:14:42;95910.69;;;6.92;58.52
46111;BME280;31849;55.992;37.252;2023-10-08T09:19:46;95920.63;;;7.01;58.09
46111;BME280;31849;55.992;37.252;2023-10-08T09:24:53;95902.56;;;7.01;58.25
46111;BME280;31849;55.992;37.252;2023-10-08T09:29:57;95910.28;;;6.82;58.72
46111;BME280;31849;55.992;37.252;2023-10-08T09:35:01;95913.06;;;6.77;58.16
46111;BME280;31849;55.992;37.252;2023-10-08T09:40:11;95912.63;;;6.67;58.32
46111;BME280;31849;55.992;37.252;2023-10-08T09:45:15;95915.94;;;6.71;58.76
46111;BME280;31849;55.992;37.252;2023-10-08T09:50:22;95914.28;;;6.49;58.26
46111;BME280;31849;55.992;37.252;2023-10-08T09:55:32;95934.44;;;6.60;58.52
46111;BME280;31849;55.992;37.252;2023-10-08T10:00:36;95943.31;;;6.34;59.83
46111;BME280;31849;55.992;37.252;2023-10-08T10:05:42;95934.28;;;6.24;60.11
46111;BME280;31849;55.992;37.252;2023-10-08T10:10:58;95944.53;;;6.05;59.91
46111;BME280;31849;55.992;37.252;2023-10-08T10:16:02;95947.44;;;5.97;60.30
46111;BME280;31849;55.992;37.252;2023-10-08T10:21:25;95957.22;;;5.87;61.53
46111;BME280;31849;55.992;37.252;2023-10-08T10:26:32;95949.25;;;5.71;61.19
46111;BME280;31849;55.992;37.252;2023-10-08T10:31:38;95955.31;;;5.70;61.04
46111;BME280;31849;55.992;37.252;2023-10-08T10:36:45;95956.34;;;5.88;60.90
46111;BME280;31849;55.992;37.252;2023-10-08T10:41:53;95951.94;;;5.68;60.92
46111;BME280;31849;55.992;37.252;2023-10-08T10:47:00;95963.88;;;5.71;61.02
46111;BME280;31849;55.992;37.252;2023-10-08T10:52:22;95961.56;;;6.09;60.45
46111;BME280;31849;55.992;37.252;2023-10-08T10:57:49;95958.47;;;6.21;60.44
46111;BME280;31849;55.992;37.252;2023-10-08T11:03:05;95966.59;;;6.12;61.10
46111;BME280;31849;55.992;37.252;2023-10-08T11:08:19;95963.09;;;5.91;60.71
46111;BME280;31849;55.992;37.252;2023-10-08T11:13:26;95970.63;;;5.97;61.01
46111;BME280;31849;55.992;37.252;2023-10-08T11:18:43;95968.19;;;6.14;60.43
46111;BME280;31849;55.992;37.252;2023-10-08T11:23:48;95973.84;;;6.02;60.39
46111;BME280;31849;55.992;37.252;2023-10-08T11:28:59;95979.94;;;5.77;61.10
46111;BME280;31849;55.992;37.252;2023-10-08T11:34:05;95975.56;;;5.57;60.64
46111;BME280;31849;55.992;37.252;2023-10-08T11:39:12;95986.53;;;5.40;62.48
46111;BME280;31849;55.992;37.252;2023-10-08T11:44:25;95983.31;;;5.57;60.98
46111;BME280;31849;55.992;37.252;2023-10-08T11:49:32;95969.03;;;5.49;60.94
46111;BME280;31849;55.992;37.252;2023-10-08T11:54:38;95971.72;;;5.45;61.73
46111;BME280;31849;55.992;37.252;2023-10-08T11:59:45;95983.03;;;5.41;62.01
46111;BME280;31849;55.992;37.252;2023-10-08T12:04:49;95976.75;;;5.49;61.44
46111;BME280;31849;55.992;37.252;2023-10-08T12:09:53;95983.03;;;5.41;62.23
46111;BME280;31849;55.992;37.252;2023-10-08T12:14:58;95988.31;;;5.38;62.32
46111;BME280;31849;55.992;37.252;2023-10-08T12:20:06;95978.72;;;5.20;61.86
46111;BME280;31849;55.992;37.252;2023-10-08T12:25:25;95987.03;;;5.26;62.86
46111;BME280;31849;55.992;37.252;2023-10-08T12:30:30;95980.00;;;5.32;62.36
46111;BME280;31849;55.992;37.252;2023-10-08T12:35:34;95975.06;;;5.02;63.15
46111;BME280;31849;55.992;37.252;2023-10-08T12:40:39;95974.09;;;5.04;62.85
46111;BME280;31849;55.992;37.252;2023-10-08T12:45:51;95971.47;;;5.29;61.86
46111;BME280;31849;55.992;37.252;2023-10-08T12:50:58;95979.25;;;5.04;62.52
46111;BME280;31849;55.992;37.252;2023-10-08T12:56:03;95985.44;;;4.75;62.90
46111;BME280;31849;55.992;37.252;2023-10-08T13:01:10;95978.75;;;4.95;62.95
46111;BME280;31849;55.992;37.252;2023-10-08T13:06:17;95985.91;;;5.10;61.75
46111;BME280;31849;55.992;37.252;2023-10-08T13:11:26;95984.28;;;4.84;62.99
46111;BME280;31849;55.992;37.252;2023-10-08T13:16:33;95990.06;;;4.90;62.76
46111;BME280;31849;55.992;37.252;2023-10-08T13:21:39;95991.22;;;4.82;62.87
46111;BME280;31849;55.992;37.252;2023-10-08T13:26:43;95993.25;;;4.72;63.07
46111;BME280;31849;55.992;37.252;2023-10-08T13:31:51;95967.81;;;4.64;62.60
46111;BME280;31849;55.992;37.252;2023-10-08T13:36:56;95991.50;;;4.74;63.38
46111;BME280;31849;55.992;37.252;2023-10-08T13:41:59;95986.47;;;4.46;63.92
46111;BME280;31849;55.992;37.252;2023-10-08T13:47:05;95988.16;;;4.45;63.15
46111;BME280;31849;55.992;37.252;2023-10-08T13:52:08;95992.66;;;4.40;63.88
46111;BME280;31849;55.992;37.252;2023-10-08T13:57:13;95986.13;;;4.30;64.00
46111;BME280;31849;55.992;37.252;2023-10-08T14:02:18;95997.03;;;4.36;63.84
46111;BME280;31849;55.992;37.252;2023-10-08T14:07:23;95994.63;;;4.32;64.10
46111;BME280;31849;55.992;37.252;2023-10-08T14:12:29;95997.94;;;4.35;63.84
46111;BME280;31849;55.992;37.252;2023-10-08T14:17:38;96002.00;;;4.43;63.56
46111;BME280;31849;55.992;37.252;2023-10-08T14:22:46;95996.09;;;4.39;63.38
46111;BME280;31849;55.992;37.252;2023-10-08T14:27:54;95998.06;;;4.32;63.89
46111;BME280;31849;55.992;37.252;2023-10-08T14:33:08;96001.97;;;4.17;64.11
46111;BME280;31849;55.992;37.252;2023-10-08T14:38:15;96014.13;;;4.12;64.03
46111;BME280;31849;55.992;37.252;2023-10-08T14:43:36;96008.25;;;4.09;64.34
46111;BME280;31849;55.992;37.252;2023-10-08T14:48:41;96014.94;;;4.14;63.69
46111;BME280;31849;55.992;37.252;2023-10-08T14:53:45;96014.66;;;3.95;64.91
46111;BME280;31849;55.992;37.252;2023-10-08T14:58:50;96019.50;;;4.04;64.68
46111;BME280;31849;55.992;37.252;2023-10-08T15:03:54;96029.34;;;4.18;63.62
46111;BME280;31849;55.992;37.252;2023-10-08T15:08:59;96027.09;;;3.81;64.89
46111;BME280;31849;55.992;37.252;2023-10-08T15:14:03;96039.31;;;3.73;64.94
46111;BME280;31849;55.992;37.252;2023-10-08T15:19:13;96044.56;;;3.98;64.61
46111;BME280;31849;55.992;37.252;2023-10-08T15:24:18;96049.16;;;3.88;64.89
46111;BME280;31849;55.992;37.252;2023-10-08T15:29:23;96051.00;;;3.83;64.96
46111;BME280;31849;55.992;37.252;2023-10-08T15:34:29;96053.38;;;3.91;64.64
46111;BME280;31849;55.992;37.252;2023-10-08T15:39:39;96062.75;;;3.92;64.97
46111;BME280;31849;55.992;37.252;2023-10-08T15:44:42;96055.91;;;3.92;64.61
46111;BME280;31849;55.992;37.252;2023-10-08T15:49:48;96052.66;;;3.85;64.60
46111;BME280;31849;55.992;37.252;2023-10-08T15:54:52;96058.50;;;3.91;64.89
46111;BME280;31849;55.992;37.252;2023-10-08T15:59:55;96071.72;;;3.78;65.38
46111;BME280;31849;55.992;37.252;2023-10-08T16:05:00;96071.47;;;3.87;64.78
46111;BME280;31849;55.992;37.252;2023-10-08T16:10:07;96075.25;;;4.04;65.00
46111;BME280;31849;55.992;37.252;2023-10-08T16:15:11;96077.53;;;3.85;65.13
46111;BME280;31849;55.992;37.252;2023-10-08T16:20:16;96079.91;;;3.91;65.23
46111;BME280;31849;55.992;37.252;2023-10-08T16:25:20;96067.53;;;3.76;64.79
46111;BME280;31849;55.992;37.252;2023-10-08T16:30:24;96078.44;;;3.82;65.83
46111;BME280;31849;55.992;37.252;2023-10-08T16:35:31;96089.34;;;3.91;64.62
46111;BME280;31849;55.992;37.252;2023-10-08T16:40:35;96089.66;;;3.80;64.92
46111;BME280;31849;55.992;37.252;2023-10-08T16:45:38;96093.13;;;3.79;65.11
46111;BME280;31849;55.992;37.252;2023-10-08T16:50:44;96099.25;;;3.75;64.89
46111;BME280;31849;55.992;37.252;2023-10-08T16:55:47;96094.25;;;3.70;65.14
46111;BME280;31849;55.992;37.252;2023-10-08T17:00:52;96101.00;;;3.73;64.32
46111;BME280;31849;55.992;37.252;2023-10-08T17:05:57;96100.88;;;3.77;64.50
46111;BME280;31849;55.992;37.252;2023-10-08T17:11:02;96103.19;;;3.86;65.00
46111;BME280;31849;55.992;37.252;2023-10-08T17:16:06;96099.72;;;3.87;65.01
46111;BME280;31849;55.992;37.252;2023-10-08T17:21:11;96112.13;;;3.73;65.21
46111;BME280;31849;55.992;37.252;2023-10-08T17:26:17;96112.09;;;3.75;65.26
46111;BME280;31849;55.992;37.252;2023-10-08T17:31:21;96120.53;;;3.78;64.76
46111;BME280;31849;55.992;37.252;2023-10-08T17:36:27;96118.59;;;3.86;64.21
46111;BME280;31849;55.992;37.252;2023-10-08T17:41:31;96130.81;;;3.78;65.23
46111;BME280;31849;55.992;37.252;2023-10-08T17:46:35;96130.63;;;3.84;65.34
46111;BME280;31849;55.992;37.252;2023-10-08T17:51:41;96123.56;;;3.93;65.19
46111;BME280;31849;55.992;37.252;2023-10-08T17:56:45;96130.47;;;3.91;65.45
46111;BME280;31849;55.992;37.252;2023-10-08T18:01:48;96134.94;;;3.84;65.20
46111;BME280;31849;55.992;37.252;2023-10-08T18:06:53;96148.84;;;4.07;65.09
46111;BME280;31849;55.992;37.252;2023-10-08T18:11:57;96153.34;;;4.00;64.94
46111;BME280;31849;55.992;37.252;2023-10-08T18:17:02;96151.19;;;3.84;64.65
46111;BME280;31849;55.992;37.252;2023-10-08T18:22:08;96166.84;;;4.07;65.12
46111;BME280;31849;55.992;37.252;2023-10-08T18:27:12;96158.75;;;3.91;65.00
46111;BME280;31849;55.992;37.252;2023-10-08T18:32:16;96162.25;;;3.88;65.52
46111;BME280;31849;55.992;37.252;2023-10-08T18:37:21;96163.22;;;3.84;65.48
46111;BME280;31849;55.992;37.252;2023-10-08T18:42:25;96164.81;;;3.88;65.39
46111;BME280;31849;55.992;37.252;2023-10-08T18:47:29;96164.44;;;4.00;65.11
46111;BME280;31849;55.992;37.252;2023-10-08T18:52:36;96167.03;;;4.00;65.34
46111;BME280;31849;55.992;37.252;2023-10-08T18:57:40;96167.25;;;3.93;65.29
46111;BME280;31849;55.992;37.252;2023-10-08T19:02:45;96183.31;;;4.01;64.68
46111;BME280;31849;55.992;37.252;2023-10-08T19:07:50;96185.59;;;4.10;64.85
46111;BME280;31849;55.992;37.252;2023-10-08T19:12:55;96201.81;;;4.12;64.82
46111;BME280;31849;55.992;37.252;2023-10-08T19:18:00;96208.97;;;4.02;65.22
46111;BME280;31849;55.992;37.252;2023-10-08T19:23:08;96213.16;;;4.05;64.98
46111;BME280;31849;55.992;37.252;2023-10-08T19:28:13;96222.47;;;4.09;65.26
46111;BME280;31849;55.992;37.252;2023-10-08T19:33:17;96215.44;;;3.84;64.58
46111;BME280;31849;55.992;37.252;2023-10-08T19:38:23;96228.09;;;3.92;65.03
46111;BME280;31849;55.992;37.252;2023-10-08T19:43:27;96234.03;;;3.94;64.97
46111;BME280;31849;55.992;37.252;2023-10-08T19:48:31;96245.16;;;3.95;64.39
46111;BME280;31849;55.992;37.252;2023-10-08T19:53:36;96246.75;;;3.99;65.38
46111;BME280;31849;55.992;37.252;2023-10-08T19:58:40;96252.94;;;3.92;64.48
46111;BME280;31849;55.992;37.252;2023-10-08T20:03:44;96249.25;;;3.70;65.32
46111;BME280;31849;55.992;37.252;2023-10-08T20:08:50;96255.47;;;3.62;64.62
46111;BME280;31849;55.992;37.252;2023-10-08T20:13:54;96269.84;;;3.69;65.27
46111;BME280;31849;55.992;37.252;2023-10-08T20:18:57;96277.28;;;3.78;65.71
46111;BME280;31849;55.992;37.252;2023-10-08T20:24:03;96284.00;;;3.84;65.50
46111;BME280;31849;55.992;37.252;2023-10-08T20:29:06;96288.84;;;3.62;65.24
46111;BME280;31849;55.992;37.252;2023-10-08T20:34:10;96291.19;;;3.71;65.71
46111;BME280;31849;55.992;37.252;2023-10-08T20:39:15;96317.34;;;3.87;65.25
46111;BME280;31849;55.992;37.252;2023-10-08T20:44:22;96312.59;;;3.72;65.33
46111;BME280;31849;55.992;37.252;2023-10-08T20:49:25;96330.44;;;3.78;65.41
46111;BME280;31849;55.992;37.252;2023-10-08T20:54:31;96324.53;;;3.73;65.41
46111;BME280;31849;55.992;37.252;2023-10-08T20:59:35;96339.09;;;3.74;64.81
46111;BME280;31849;55.992;37.252;2023-10-08T21:04:38;96351.69;;;3.83;65.48
46111;BME280;31849;55.992;37.252;2023-10-08T21:09:43;96351.94;;;3.74;64.86
46111;BME280;31849;55.992;37.252;2023-10-08T21:14:47;96359.53;;;3.78;65.10
46111;BME280;31849;55.992;37.252;2023-10-08T21:19:50;96366.69;;;3.67;65.66
46111;BME280;31849;55.992;37.252;2023-10-08T21:24:55;96362.97;;;3.79;65.26
46111;BME280;31849;55.992;37.252;2023-10-08T21:29:59;96374.16;;;3.76;65.37
46111;BME280;31849;55.992;37.252;2023-10-08T21:35:05;96381.31;;;3.63;65.35
46111;BME280;31849;55.992;37.252;2023-10-08T21:40:11;96385.53;;;3.66;66.29
46111;BME280;31849;55.992;37.252;2023-10-08T21:45:16;96378.50;;;3.74;65.44
46111;BME280;31849;55.992;37.252;2023-10-08T21:50:21;96401.50;;;3.79;65.13
46111;BME280;31849;55.992;37.252;2023-10-08T21:55:28;96403.19;;;3.80;65.54
46111;BME280;31849;55.992;37.252;2023-10-08T22:00:32;96406.81;;;3.71;65.65
46111;BME280;31849;55.992;37.252;2023-10-08T22:05:48;96418.22;;;3.61;65.99
46111;BME280;31849;55.992;37.252;2023-10-08T22:10:55;96425.66;;;3.72;65.41
46111;BME280;31849;55.992;37.252;2023-10-08T22:15:59;96439.41;;;3.69;65.12
46111;BME280;31849;55.992;37.252;2023-10-08T22:21:16;96449.78;;;3.66;65.55
46111;BME280;31849;55.992;37.252;2023-10-08T22:26:21;96459.06;;;3.72;64.82
46111;BME280;31849;55.992;37.252;2023-10-08T22:31:26;96461.16;;;3.56;66.27
46111;BME280;31849;55.992;37.252;2023-10-08T22:36:30;96475.66;;;3.58;65.28
46111;BME280;31849;55.992;37.252;2023-10-08T22:41:45;96484.13;;;3.62;65.91
46111;BME280;31849;55.992;37.252;2023-10-08T22:46:57;96485.94;;;3.58;65.28
46111;BME280;31849;55.992;37.252;2023-10-08T22:52:12;96489.25;;;3.62;65.56
46111;BME280;31849;55.992;37.252;2023-10-08T22:57:19;96493.53;;;3.63;65.53
46111;BME280;31849;55.992;37.252;2023-10-08T23:02:25;96496.97;;;3.62;66.07
46111;BME280;31849;55.992;37.252;2023-10-08T23:07:29;96503.72;;;3.66;66.19
46111;BME280;31849;55.992;37.252;2023-10-08T23:12:34;96513.06;;;3.70;65.77
46111;BME280;31849;55.992;37.252;2023-10-08T23:17:37;96511.25;;;3.74;65.39
46111;BME280;31849;55.992;37.252;2023-10-08T23:22:42;96531.16;;;3.65;65.66
46111;BME280;31849;55.992;37.252;2023-10-08T23:27:48;96531.94;;;3.69;65.89
46111;BME280;31849;55.992;37.252;2023-10-08T23:32:51;96540.56;;;3.65;65.62
46111;BME280;31849;55.992;37.252;2023-10-08T23:37:54;96540.59;;;3.63;65.87
46111;BME280;31849;55.992;37.252;2023-10-08T23:43:09;96550.97;;;3.60;65.92
46111;BME280;31849;55.992;37.252;2023-10-08T23:48:18;96559.47;;;3.64;65.91
46111;BME280;31849;55.992;37.252;2023-10-08T23:53:22;96586.09;;;3.60;66.10
46111;BME280;31849;55.992;37.252;2023-10-08T23:58:34;96585.03;;;3.70;65.97
